createdAt,value
2023-02-15T00:00:09.313Z,20.87
2023-02-15T00:02:48.845Z,21.17
2023-02-15T00:05:16.692Z,21.07
2023-02-15T00:07:44.539Z,20.87
2023-02-15T00:10:15.045Z,20.03
2023-02-15T00:12:42.791Z,21.20
2023-02-15T00:15:12.288Z,20.87
2023-02-15T00:17:40.035Z,22.80
2023-02-15T00:20:08.888Z,20.40
2023-02-15T00:22:36.659Z,21.80
2023-02-15T00:25:04.801Z,22.07
2023-02-15T00:27:35.431Z,22.43
2023-02-15T00:30:04.860Z,20.77
2023-02-15T00:32:32.871Z,21.53
2023-02-15T00:35:00.554Z,22.80
2023-02-15T00:37:28.364Z,22.57
2023-02-15T00:39:56.093Z,21.93
2023-02-15T00:42:23.841Z,23.47
2023-02-15T00:44:54.911Z,23.10
2023-02-15T00:47:25.218Z,23.37
2023-02-15T00:49:58.115Z,22.73
2023-02-15T00:52:26.163Z,22.37
2023-02-15T00:55:08.416Z,25.20
2023-02-15T00:57:36.352Z,22.77
2023-02-15T01:00:06.577Z,22.67
2023-02-15T01:02:37.077Z,20.53
2023-02-15T01:05:05.071Z,20.13
2023-02-15T01:07:32.951Z,20.33
2023-02-15T01:10:00.860Z,20.27
2023-02-15T01:12:28.693Z,20.97
2023-02-15T01:14:58.603Z,22.20
2023-02-15T01:17:28.387Z,22.60
2023-02-15T01:19:56.841Z,21.40
2023-02-15T01:22:24.626Z,22.77
2023-02-15T01:24:52.498Z,20.57
2023-02-15T01:27:22.897Z,22.27
2023-02-15T01:29:51.173Z,22.30
2023-02-15T01:32:19.002Z,23.03
2023-02-15T01:34:48.201Z,22.33
2023-02-15T01:37:19.629Z,22.03
2023-02-15T01:39:47.459Z,22.93
2023-02-15T01:42:15.666Z,19.43
2023-02-15T01:44:53.626Z,22.33
2023-02-15T01:47:29.052Z,23.57
2023-02-15T01:50:05.304Z,24.20
2023-02-15T01:52:34.801Z,24.27
2023-02-15T01:55:07.118Z,23.70
2023-02-15T01:57:35.832Z,26.23
2023-02-15T02:00:10.317Z,25.83
2023-02-15T02:02:41.682Z,24.43
2023-02-15T02:05:13.928Z,25.20
2023-02-15T02:07:44.505Z,26.23
2023-02-15T02:10:15.172Z,26.30
2023-02-15T02:12:46.904Z,24.70
2023-02-15T02:15:15.405Z,25.00
2023-02-15T02:17:57.102Z,22.97
2023-02-15T02:20:49.640Z,22.57
2023-02-15T02:23:27.789Z,23.77
2023-02-15T02:26:30.642Z,24.40
2023-02-15T02:29:41.603Z,24.13
2023-02-15T02:32:53.870Z,24.33
2023-02-15T02:35:28.860Z,26.20
2023-02-15T02:38:05.426Z,26.80
2023-02-15T02:40:57.827Z,24.40
2023-02-15T02:43:35.574Z,25.10
2023-02-15T02:46:10.069Z,24.50
2023-02-15T02:48:40.499Z,24.47
2023-02-15T02:51:09.641Z,25.87
2023-02-15T02:53:40.047Z,27.70
2023-02-15T02:56:17.849Z,26.50
2023-02-15T02:58:53.464Z,25.23
2023-02-15T03:01:36.680Z,27.10
2023-02-15T03:04:11.197Z,25.47
2023-02-15T03:06:48.144Z,26.83
2023-02-15T03:09:23.313Z,24.80
2023-02-15T03:11:51.546Z,25.63
2023-02-15T03:14:21.641Z,24.27
2023-02-15T03:16:51.363Z,22.17
2023-02-15T03:19:24.486Z,23.07
2023-02-15T03:22:04.568Z,22.37
2023-02-15T03:24:37.561Z,22.47
2023-02-15T03:27:11.600Z,22.57
2023-02-15T03:29:40.913Z,22.43
2023-02-15T03:32:12.909Z,24.23
2023-02-15T03:34:40.820Z,23.33
2023-02-15T03:37:15.736Z,23.30
2023-02-15T03:39:50.842Z,23.40
2023-02-15T03:42:27.045Z,24.20
2023-02-15T03:45:00.314Z,23.73
2023-02-15T03:47:32.103Z,24.10
2023-02-15T03:50:04.131Z,22.93
2023-02-15T03:52:34.320Z,22.63
2023-02-15T03:55:02.196Z,22.80
2023-02-15T03:57:57.353Z,22.13
2023-02-15T04:00:44.373Z,22.27
2023-02-15T04:03:26.376Z,20.70
2023-02-15T04:05:54.269Z,20.90
2023-02-15T04:08:44.125Z,20.00
2023-02-15T04:11:10.950Z,21.63
2023-02-15T04:13:38.771Z,20.60
2023-02-15T04:16:07.097Z,22.10
2023-02-15T04:18:56.785Z,21.40
2023-02-15T04:21:44.992Z,22.07
2023-02-15T04:24:32.945Z,21.83
2023-02-15T04:27:02.158Z,21.00
2023-02-15T04:29:30.400Z,22.53
2023-02-15T04:31:59.439Z,22.23
2023-02-15T04:34:27.647Z,22.30
2023-02-15T04:36:55.395Z,21.90
2023-02-15T04:39:24.446Z,22.43
2023-02-15T04:41:55.345Z,21.50
2023-02-15T04:44:23.068Z,22.87
2023-02-15T04:46:50.895Z,22.60
2023-02-15T04:49:18.864Z,23.07
2023-02-15T04:51:46.600Z,23.40
2023-02-15T04:54:14.353Z,23.17
2023-02-15T04:56:44.088Z,23.20
2023-02-15T04:59:11.886Z,21.93
2023-02-15T05:01:39.693Z,23.13
2023-02-15T05:04:07.520Z,22.93
2023-02-15T05:06:37.268Z,21.70
2023-02-15T05:09:05.225Z,21.30
2023-02-15T05:11:32.952Z,22.43
2023-02-15T05:14:02.093Z,21.97
2023-02-15T05:16:29.838Z,21.50
2023-02-15T05:18:57.661Z,21.37
2023-02-15T05:21:26.062Z,21.43
2023-02-15T05:23:54.015Z,21.60
2023-02-15T05:26:43.104Z,20.80
2023-02-15T05:29:12.761Z,20.97
2023-02-15T05:31:40.834Z,21.67
2023-02-15T05:34:08.749Z,20.97
2023-02-15T05:36:36.511Z,21.73
2023-02-15T05:39:05.020Z,22.50
2023-02-15T05:41:32.785Z,21.80
2023-02-15T05:44:00.553Z,20.87
2023-02-15T05:46:29.734Z,20.97
2023-02-15T05:48:57.709Z,20.83
2023-02-15T05:51:25.422Z,21.20
2023-02-15T05:53:53.117Z,20.53
2023-02-15T05:56:46.026Z,20.17
2023-02-15T05:59:14.187Z,20.90
2023-02-15T06:01:43.352Z,21.37
2023-02-15T06:04:11.041Z,21.47
2023-02-15T06:06:38.760Z,20.60
2023-02-15T06:09:06.551Z,19.60
2023-02-15T06:11:34.247Z,20.73
2023-02-15T06:14:01.970Z,21.17
2023-02-15T06:16:29.812Z,18.67
2023-02-15T06:19:00.102Z,21.27
2023-02-15T06:21:27.899Z,20.67
2023-02-15T06:23:55.704Z,20.50
2023-02-15T06:26:29.369Z,20.20
2023-02-15T06:28:57.161Z,19.57
2023-02-15T06:31:25.154Z,19.63
2023-02-15T06:33:52.979Z,21.47
2023-02-15T06:36:22.988Z,20.67
2023-02-15T06:38:50.995Z,20.20
2023-02-15T06:41:18.680Z,21.00
2023-02-15T06:43:46.367Z,20.33
2023-02-15T06:46:14.254Z,19.60
2023-02-15T06:48:42.140Z,20.00
2023-02-15T06:51:12.993Z,18.97
2023-02-15T06:53:43.804Z,22.07
2023-02-15T06:56:12.492Z,18.33
2023-02-15T06:58:41.281Z,19.63
2023-02-15T07:01:10.197Z,20.20
2023-02-15T07:03:38.138Z,19.37
2023-02-15T07:06:09.194Z,19.43
2023-02-15T07:08:47.146Z,20.53
2023-02-15T07:11:32.514Z,18.90
2023-02-15T07:14:02.619Z,18.77
2023-02-15T07:16:30.849Z,19.40
2023-02-15T07:18:58.728Z,20.33
2023-02-15T07:21:26.496Z,18.80
2023-02-15T07:23:58.478Z,18.47
2023-02-15T07:26:26.327Z,19.10
2023-02-15T07:28:54.061Z,19.67
2023-02-15T07:31:21.840Z,17.77
2023-02-15T07:33:49.625Z,18.23
2023-02-15T07:36:17.504Z,18.40
2023-02-15T07:38:45.814Z,16.80
2023-02-15T07:41:16.576Z,17.77
2023-02-15T07:43:46.363Z,18.47
2023-02-15T07:46:18.681Z,16.80
2023-02-15T07:48:46.974Z,15.97
2023-02-15T07:51:16.768Z,16.40
2023-02-15T07:53:44.981Z,16.57
2023-02-15T07:56:15.711Z,14.80
2023-02-15T07:58:56.774Z,16.27
2023-02-15T08:01:33.160Z,15.57
2023-02-15T08:04:01.485Z,16.40
2023-02-15T08:06:32.390Z,16.50
2023-02-15T08:09:01.785Z,17.60
2023-02-15T08:11:35.105Z,16.40
2023-02-15T08:14:04.942Z,18.03
2023-02-15T08:16:36.037Z,15.70
2023-02-15T08:19:06.126Z,17.37
2023-02-15T08:21:40.759Z,16.53
2023-02-15T08:24:10.440Z,16.83
2023-02-15T08:26:42.200Z,15.67
2023-02-15T08:29:10.492Z,15.63
2023-02-15T08:31:39.436Z,17.03
2023-02-15T08:34:07.536Z,16.70
2023-02-15T08:36:35.731Z,15.93
2023-02-15T08:39:06.311Z,16.17
2023-02-15T08:41:36.562Z,18.20
2023-02-15T08:44:07.893Z,16.53
2023-02-15T08:46:37.907Z,16.20
2023-02-15T08:49:06.300Z,16.53
2023-02-15T08:51:36.167Z,15.47
2023-02-15T08:54:06.571Z,14.37
2023-02-15T08:56:39.457Z,14.97
2023-02-15T08:59:13.472Z,15.37
2023-02-15T09:01:41.274Z,14.37
2023-02-15T09:04:10.727Z,15.23
2023-02-15T09:06:39.350Z,14.30
2023-02-15T09:09:11.993Z,15.07
2023-02-15T09:11:41.967Z,16.50
2023-02-15T09:14:14.464Z,16.00
2023-02-15T09:16:45.756Z,15.20
2023-02-15T09:19:14.179Z,14.87
2023-02-15T09:21:42.487Z,15.60
2023-02-15T09:24:11.961Z,16.20
2023-02-15T09:26:42.355Z,15.30
2023-02-15T09:29:12.778Z,13.33
2023-02-15T09:31:45.031Z,14.83
2023-02-15T09:34:13.724Z,15.37
2023-02-15T09:36:42.596Z,14.43
2023-02-15T09:39:12.500Z,16.13
2023-02-15T09:42:06.325Z,15.67
2023-02-15T09:44:56.417Z,16.97
2023-02-15T09:47:43.916Z,14.93
2023-02-15T09:50:20.148Z,16.37
2023-02-15T09:53:02.677Z,13.90
2023-02-15T09:55:44.445Z,14.47
2023-02-15T09:58:22.683Z,13.93
2023-02-15T10:00:59.142Z,13.47
2023-02-15T10:03:44.469Z,12.20
2023-02-15T10:06:32.067Z,13.07
2023-02-15T10:09:11.848Z,12.83
2023-02-15T10:11:52.134Z,15.23
2023-02-15T10:14:42.533Z,13.23
2023-02-15T10:17:24.036Z,13.50
2023-02-15T10:20:06.544Z,14.67
2023-02-15T10:22:44.564Z,13.33
2023-02-15T10:25:31.873Z,11.93
2023-02-15T10:28:06.577Z,12.13
2023-02-15T10:30:45.649Z,12.73
2023-02-15T10:33:25.975Z,11.00
2023-02-15T10:36:03.802Z,13.00
2023-02-15T10:38:39.111Z,12.33
2023-02-15T10:41:21.080Z,12.73
2023-02-15T10:44:07.947Z,12.77
2023-02-15T10:46:54.041Z,13.07
2023-02-15T10:49:37.351Z,13.90
2023-02-15T10:52:19.594Z,13.00
2023-02-15T10:55:00.110Z,11.23
2023-02-15T10:57:36.181Z,10.97
2023-02-15T11:00:12.250Z,11.37
2023-02-15T11:02:53.457Z,13.73
2023-02-15T11:05:51.500Z,12.00
2023-02-15T11:08:20.773Z,12.70
2023-02-15T11:10:53.418Z,13.13
2023-02-15T11:13:23.183Z,12.80
2023-02-15T11:15:56.204Z,12.80
2023-02-15T11:18:31.141Z,12.80
2023-02-15T11:21:04.236Z,13.33
2023-02-15T11:23:36.024Z,12.03
2023-02-15T11:26:06.932Z,12.23
2023-02-15T11:28:39.087Z,11.53
2023-02-15T11:31:15.839Z,10.93
2023-02-15T11:33:48.771Z,10.73
2023-02-15T11:36:22.298Z,10.30
2023-02-15T11:38:54.961Z,11.00
2023-02-15T11:41:26.988Z,11.60
2023-02-15T11:44:00.250Z,10.43
2023-02-15T11:46:28.021Z,11.80
2023-02-15T11:48:55.824Z,12.17
2023-02-15T11:51:25.232Z,10.90
2023-02-15T11:53:53.753Z,11.37
2023-02-15T11:56:24.701Z,10.80
2023-02-15T11:58:58.056Z,11.13
2023-02-15T12:01:32.795Z,12.50
2023-02-15T12:04:04.979Z,12.03
2023-02-15T12:06:36.516Z,12.18
2023-02-15T12:09:09.382Z,10.20
2023-02-15T12:11:38.919Z,10.80
2023-02-15T12:14:08.404Z,11.33
2023-02-15T12:16:44.169Z,11.18
2023-02-15T12:19:29.358Z,12.03
2023-02-15T12:22:00.347Z,12.00
2023-02-15T12:24:31.837Z,10.70
2023-02-15T12:27:03.522Z,11.60
2023-02-15T12:29:34.705Z,11.65
2023-02-15T12:32:02.839Z,10.50
2023-02-15T12:34:34.143Z,11.77
2023-02-15T12:37:12.649Z,11.70
2023-02-15T12:39:54.173Z,11.70
2023-02-15T12:42:22.822Z,12.63
2023-02-15T12:45:02.740Z,12.20
2023-02-15T12:47:32.157Z,10.90
2023-02-15T12:50:12.617Z,10.95
2023-02-15T12:52:42.474Z,11.75
2023-02-15T12:55:19.927Z,10.93
2023-02-15T12:57:48.116Z,10.85
2023-02-15T13:00:32.914Z,12.13
2023-02-15T13:03:02.797Z,10.98
2023-02-15T13:05:35.922Z,11.80
2023-02-15T13:08:12.725Z,12.70
2023-02-15T13:10:44.973Z,12.07
2023-02-15T13:13:18.872Z,11.45
2023-02-15T13:15:50.544Z,11.00
2023-02-15T13:18:21.861Z,11.82
2023-02-15T13:20:50.976Z,10.98
2023-02-15T13:23:29.397Z,11.73
2023-02-15T13:25:59.965Z,12.18
2023-02-15T13:28:37.165Z,12.18
2023-02-15T13:31:05.576Z,11.07
2023-02-15T13:33:37.114Z,10.75
2023-02-15T13:36:12.565Z,10.82
2023-02-15T13:38:51.419Z,12.05
2023-02-15T13:41:27.472Z,10.70
2023-02-15T13:44:06.209Z,10.77
2023-02-15T13:46:47.679Z,11.88
2023-02-15T13:49:23.891Z,12.23
2023-02-15T13:51:59.315Z,9.90
2023-02-15T13:54:38.565Z,10.38
2023-02-15T13:57:28.769Z,10.10
2023-02-15T14:00:06.720Z,10.50
2023-02-15T14:03:10.150Z,10.70
2023-02-15T14:05:51.524Z,10.48
2023-02-15T14:08:34.731Z,10.43
2023-02-15T14:11:10.448Z,11.23
2023-02-15T14:13:55.237Z,10.43
2023-02-15T14:16:34.579Z,10.07
2023-02-15T14:19:13.288Z,10.45
2023-02-15T14:21:48.079Z,11.52
2023-02-15T14:24:27.441Z,11.40
2023-02-15T14:27:06.258Z,11.43
2023-02-15T14:29:53.732Z,11.43
2023-02-15T14:32:29.962Z,11.10
2023-02-15T14:34:59.901Z,11.30
2023-02-15T14:37:42.432Z,10.98
2023-02-15T14:40:37.072Z,10.30
2023-02-15T14:43:14.181Z,11.80
2023-02-15T14:45:58.120Z,11.50
2023-02-15T14:48:32.367Z,11.05
2023-02-15T14:51:00.475Z,10.32
2023-02-15T14:53:39.457Z,11.45
2023-02-15T14:56:18.408Z,10.50
2023-02-15T14:59:01.474Z,10.13
2023-02-15T15:01:31.743Z,10.48
2023-02-15T15:04:03.149Z,10.43
2023-02-15T15:06:33.660Z,11.23
2023-02-15T15:09:12.520Z,11.45
2023-02-15T15:11:46.610Z,11.38
2023-02-15T15:14:41.781Z,10.50
2023-02-15T15:17:17.061Z,11.07
2023-02-15T15:20:05.392Z,11.25
2023-02-15T15:22:35.253Z,12.07
2023-02-15T15:25:04.077Z,12.05
2023-02-15T15:27:58.719Z,10.90
2023-02-15T15:30:56.194Z,11.40
2023-02-15T15:33:55.618Z,11.98
2023-02-15T15:36:55.290Z,10.20
2023-02-15T15:39:44.851Z,11.15
2023-02-15T15:42:20.835Z,11.35
2023-02-15T15:45:33.942Z,11.75
2023-02-15T15:48:17.423Z,10.98
2023-02-15T15:50:51.962Z,10.57
2023-02-15T15:53:24.353Z,11.30
2023-02-15T15:55:57.641Z,10.82
2023-02-15T15:58:26.384Z,11.00
2023-02-15T16:00:57.964Z,11.73
2023-02-15T16:03:28.942Z,10.60
2023-02-15T16:06:01.577Z,11.85
2023-02-15T16:08:39.286Z,11.95
2023-02-15T16:11:13.338Z,11.38
2023-02-15T16:13:43.128Z,12.52
2023-02-15T16:16:14.590Z,11.65
2023-02-15T16:18:43.333Z,11.18
2023-02-15T16:21:20.338Z,11.55
2023-02-15T16:24:08.345Z,11.18
2023-02-15T16:26:57.833Z,12.23
2023-02-15T16:29:30.005Z,12.38
2023-02-15T16:32:02.767Z,11.32
2023-02-15T16:34:33.459Z,11.63
2023-02-15T16:37:24.334Z,11.48
2023-02-15T16:39:52.261Z,11.55
2023-02-15T16:42:23.836Z,12.73
2023-02-15T16:44:56.861Z,13.10
2023-02-15T16:47:28.322Z,12.02
2023-02-15T16:50:02.590Z,13.02
2023-02-15T16:52:32.315Z,11.45
2023-02-15T16:55:05.252Z,11.23
2023-02-15T16:57:35.931Z,11.65
2023-02-15T17:00:21.505Z,12.23
2023-02-15T17:03:19.004Z,12.37
2023-02-15T17:05:51.891Z,12.23
2023-02-15T17:08:27.255Z,10.23
2023-02-15T17:11:21.022Z,12.30
2023-02-15T17:14:21.667Z,12.60
2023-02-15T17:16:52.097Z,11.73
2023-02-15T17:19:24.848Z,12.63
2023-02-15T17:21:58.201Z,12.07
2023-02-15T17:24:39.603Z,12.77
2023-02-15T17:27:17.065Z,12.43
2023-02-15T17:30:07.166Z,12.67
2023-02-15T17:32:41.612Z,13.32
2023-02-15T17:35:21.281Z,13.68
2023-02-15T17:37:51.209Z,12.27
2023-02-15T17:40:24.723Z,13.00
2023-02-15T17:42:53.585Z,12.55
2023-02-15T17:45:35.602Z,12.60
2023-02-15T17:48:08.962Z,12.70
2023-02-15T17:50:49.325Z,13.23
2023-02-15T17:53:30.699Z,11.77
2023-02-15T17:56:06.799Z,12.00
2023-02-15T17:58:38.491Z,11.60
2023-02-15T18:01:34.135Z,11.90
2023-02-15T18:04:30.322Z,12.82
2023-02-15T18:07:17.776Z,12.98
2023-02-15T18:10:13.088Z,13.70
2023-02-15T18:12:47.730Z,14.15
2023-02-15T18:15:19.140Z,14.63
2023-02-15T18:17:49.084Z,15.50
2023-02-15T18:20:20.123Z,15.30
2023-02-15T18:22:48.508Z,16.23
2023-02-15T18:25:18.963Z,15.18
2023-02-15T18:27:48.103Z,13.80
2023-02-15T18:30:19.152Z,14.65
2023-02-15T18:32:51.226Z,13.60
2023-02-15T18:35:21.608Z,14.15
2023-02-15T18:37:50.263Z,12.83
2023-02-15T18:40:19.818Z,13.95
2023-02-15T18:42:49.760Z,16.23
2023-02-15T18:45:19.192Z,13.27
2023-02-15T18:47:47.476Z,14.32
2023-02-15T18:50:16.274Z,13.35
2023-02-15T18:52:47.616Z,14.35
2023-02-15T18:55:19.335Z,14.43
2023-02-15T18:57:49.671Z,14.35
2023-02-15T19:00:20.742Z,13.97
2023-02-15T19:02:50.908Z,14.80
2023-02-15T19:05:18.924Z,14.60
2023-02-15T19:07:48.483Z,13.73
2023-02-15T19:10:18.589Z,15.02
2023-02-15T19:12:46.796Z,15.07
2023-02-15T19:15:23.214Z,14.50
2023-02-15T19:17:51.011Z,13.60
2023-02-15T19:20:20.778Z,14.77
2023-02-15T19:22:50.179Z,14.80
2023-02-15T19:25:21.076Z,13.75
2023-02-15T19:27:48.928Z,15.00
2023-02-15T19:30:21.391Z,14.23
2023-02-15T19:32:49.519Z,14.00
2023-02-15T19:35:19.798Z,13.63
2023-02-15T19:37:50.857Z,14.68
2023-02-15T19:40:21.560Z,14.00
2023-02-15T19:42:50.085Z,14.27
2023-02-15T19:45:26.078Z,13.80
2023-02-15T19:47:55.165Z,14.07
2023-02-15T19:50:28.530Z,14.53
2023-02-15T19:52:59.135Z,14.57
2023-02-15T19:55:31.662Z,13.02
2023-02-15T19:58:01.157Z,14.00
2023-02-15T20:00:32.361Z,14.27
2023-02-15T20:03:01.192Z,15.40
2023-02-15T20:05:30.352Z,14.93
2023-02-15T20:07:58.961Z,14.80
2023-02-15T20:10:28.948Z,14.30
2023-02-15T20:13:00.170Z,15.57
2023-02-15T20:15:36.605Z,14.93
2023-02-15T20:18:06.889Z,15.00
2023-02-15T20:20:42.687Z,15.83
2023-02-15T20:23:19.369Z,15.30
2023-02-15T20:25:47.618Z,16.42
2023-02-15T20:28:20.092Z,16.23
2023-02-15T20:30:50.240Z,16.37
2023-02-15T20:33:19.509Z,15.35
2023-02-15T20:35:48.364Z,15.93
2023-02-15T20:38:20.474Z,15.48
2023-02-15T20:41:08.239Z,16.92
2023-02-15T20:43:39.545Z,15.57
2023-02-15T20:46:08.915Z,15.15
2023-02-15T20:48:37.556Z,16.10
2023-02-15T20:51:06.411Z,14.87
2023-02-15T20:53:36.871Z,14.40
2023-02-15T20:56:07.669Z,15.23
2023-02-15T20:58:36.095Z,14.60
2023-02-15T21:01:14.494Z,16.47
2023-02-15T21:03:45.267Z,15.73
2023-02-15T21:06:14.883Z,15.67
2023-02-15T21:08:43.024Z,15.90
2023-02-15T21:11:21.483Z,16.20
2023-02-15T21:13:52.879Z,15.97
2023-02-15T21:16:22.449Z,15.70
2023-02-15T21:18:52.729Z,15.83
2023-02-15T21:21:24.597Z,15.50
2023-02-15T21:23:54.201Z,13.83
2023-02-15T21:26:23.718Z,14.20
2023-02-15T21:28:52.001Z,15.27
2023-02-15T21:31:23.386Z,15.33
2023-02-15T21:33:51.829Z,14.30
2023-02-15T21:36:21.979Z,16.43
2023-02-15T21:38:53.812Z,14.75
2023-02-15T21:41:46.038Z,14.67
2023-02-15T21:44:39.655Z,14.53
2023-02-15T21:47:41.312Z,14.03
2023-02-15T21:50:29.804Z,15.33
2023-02-15T21:52:58.193Z,14.97
2023-02-15T21:55:26.630Z,15.03
2023-02-15T21:57:54.737Z,15.00
2023-02-15T22:00:26.662Z,14.80
2023-02-15T22:02:58.517Z,14.67
2023-02-15T22:05:29.424Z,16.20
2023-02-15T22:07:57.942Z,15.17
2023-02-15T22:10:29.728Z,14.93
2023-02-15T22:12:58.862Z,15.20
2023-02-15T22:15:30.248Z,15.27
2023-02-15T22:18:08.686Z,14.60
2023-02-15T22:20:36.883Z,14.50
2023-02-15T22:23:04.803Z,14.57
2023-02-15T22:25:32.893Z,15.93
2023-02-15T22:28:00.875Z,15.70
2023-02-15T22:30:32.302Z,15.47
2023-02-15T22:33:03.660Z,15.23
2023-02-15T22:35:35.250Z,16.23
2023-02-15T22:38:03.281Z,15.50
2023-02-15T22:40:33.381Z,16.90
2023-02-15T22:43:11.611Z,16.23
2023-02-15T22:45:42.285Z,15.83
2023-02-15T22:48:13.285Z,16.83
2023-02-15T22:50:42.007Z,16.47
2023-02-15T22:53:10.908Z,16.50
2023-02-15T22:55:41.820Z,17.00
2023-02-15T22:58:17.333Z,16.63
2023-02-15T23:00:48.301Z,17.10
2023-02-15T23:03:25.450Z,17.23
2023-02-15T23:05:53.744Z,15.67
2023-02-15T23:08:27.336Z,15.50
2023-02-15T23:10:56.849Z,16.47
2023-02-15T23:13:26.989Z,16.40
2023-02-15T23:15:58.267Z,18.00
2023-02-15T23:18:31.664Z,16.97
2023-02-15T23:21:01.815Z,16.47
2023-02-15T23:23:34.946Z,16.63
2023-02-15T23:26:04.657Z,16.00
2023-02-15T23:28:36.210Z,17.00
2023-02-15T23:31:07.044Z,18.10
2023-02-15T23:33:38.739Z,15.80
2023-02-15T23:36:07.184Z,16.17
2023-02-15T23:38:35.037Z,16.40
2023-02-15T23:41:23.019Z,17.30
2023-02-15T23:43:55.049Z,16.97
2023-02-15T23:46:29.124Z,17.63
2023-02-15T23:48:58.578Z,16.67
2023-02-15T23:51:31.596Z,16.97
2023-02-15T23:53:59.478Z,17.57
2023-02-15T23:56:27.438Z,17.83
2023-02-15T23:58:55.447Z,17.47
